Time;durP1;ratioP1;P1;durP2;ratioP2;P2;SDS_P1;SDS_P2;PMS_P1;PMS_P2;Temp;Humidity;BMP_temperature;BMP_pressure;BME280_temperature;BME280_humidity;BME280_pressure;Samples;Min_cycle;Max_cycle;Signal;HPM_P1;HPM_P2
2023/05/20 00:00:08;;;;;;;7.10;5.20;;;15.40;95.10;;;;;;5052747;28;20473;-71
2023/05/20 00:02:34;;;;;;;5.10;4.70;;;15.40;95.40;;;;;;5053358;28;20412;-71
2023/05/20 00:05:00;;;;;;;5.00;4.60;;;15.30;95.10;;;;;;5052488;28;20423;-71
2023/05/20 00:07:26;;;;;;;5.10;4.70;;;15.20;95.40;;;;;;5053602;28;20772;-72
2023/05/20 00:09:51;;;;;;;5.17;4.60;;;15.20;95.80;;;;;;5053582;28;20208;-72
2023/05/20 00:12:17;;;;;;;5.53;4.57;;;15.20;96.10;;;;;;5044424;28;20737;-71
2023/05/20 00:14:43;;;;;;;5.37;4.87;;;15.20;96.20;;;;;;5033531;28;20617;-72
2023/05/20 00:17:09;;;;;;;4.83;4.53;;;15.20;96.30;;;;;;5032535;28;20179;-71
2023/05/20 00:19:35;;;;;;;5.10;4.70;;;15.10;96.30;;;;;;5033291;28;20214;-72
2023/05/20 00:22:01;;;;;;;5.17;4.73;;;15.10;96.70;;;;;;5032878;28;20173;-71
2023/05/20 00:24:27;;;;;;;4.77;4.47;;;15.10;96.70;;;;;;5033538;28;20680;-72
2023/05/20 00:26:53;;;;;;;5.17;4.80;;;15.10;96.60;;;;;;5033236;28;20749;-72
2023/05/20 00:29:20;;;;;;;5.20;4.80;;;15.10;96.40;;;;;;5031995;28;20453;-71
2023/05/20 00:31:46;;;;;;;5.40;5.00;;;15.10;96.50;;;;;;5045529;28;20419;-72
2023/05/20 00:34:12;;;;;;;5.50;4.90;;;15.00;96.90;;;;;;5038767;28;20485;-71
2023/05/20 00:36:38;;;;;;;6.30;5.70;;;15.10;97.50;;;;;;5033047;28;20407;-72
2023/05/20 00:39:04;;;;;;;6.17;5.67;;;15.00;97.90;;;;;;5031963;28;20576;-72
2023/05/20 00:41:29;;;;;;;6.23;5.83;;;15.10;98.70;;;;;;5032843;28;20959;-71
2023/05/20 00:43:56;;;;;;;7.53;5.70;;;15.00;98.80;;;;;;5032942;28;20548;-72
2023/05/20 00:46:23;;;;;;;7.37;6.67;;;15.00;98.90;;;;;;5032310;28;20176;-72
2023/05/20 00:48:49;;;;;;;8.33;6.17;;;15.00;99.10;;;;;;5046254;28;20943;-72
2023/05/20 00:51:15;;;;;;;6.93;6.40;;;14.90;99.50;;;;;;5051477;28;20754;-71
2023/05/20 00:53:42;;;;;;;6.60;6.10;;;14.90;99.50;;;;;;5052772;28;20438;-72
2023/05/20 00:56:08;;;;;;;7.03;6.43;;;14.80;99.50;;;;;;5034001;28;20894;-72
2023/05/20 00:58:37;;;;;;;5.97;5.47;;;14.80;99.30;;;;;;5052644;28;20417;-72
2023/05/20 01:01:03;;;;;;;6.50;6.00;;;14.80;99.30;;;;;;5051862;28;20802;-71
2023/05/20 01:03:29;;;;;;;6.03;5.63;;;14.80;99.90;;;;;;5051528;28;20426;-71
2023/05/20 01:05:55;;;;;;;6.67;6.03;;;14.80;99.90;;;;;;5052420;28;20425;-72
2023/05/20 01:08:23;;;;;;;6.90;6.40;;;14.80;99.90;;;;;;5032178;28;20442;-71
2023/05/20 01:10:57;;;;;;;6.67;6.10;;;14.80;99.90;;;;;;5052326;28;20415;-72
2023/05/20 01:13:30;;;;;;;6.93;6.43;;;14.80;99.90;;;;;;5032163;28;20491;-72
2023/05/20 01:15:56;;;;;;;7.17;6.67;;;14.80;99.90;;;;;;5034554;28;20410;-72
2023/05/20 01:18:24;;;;;;;7.17;6.60;;;14.80;99.90;;;;;;5051448;28;20477;-72
2023/05/20 01:20:53;;;;;;;6.10;5.60;;;14.80;99.90;;;;;;5048957;28;20564;-72
2023/05/20 01:23:19;;;;;;;6.80;6.20;;;14.80;99.90;;;;;;5051374;28;20521;-72
2023/05/20 01:25:44;;;;;;;6.67;6.17;;;14.80;99.80;;;;;;5048687;28;20475;-72
2023/05/20 01:28:16;;;;;;;7.33;6.63;;;14.80;99.90;;;;;;5031431;28;20177;-72
2023/05/20 01:30:49;;;;;;;6.70;6.10;;;14.70;99.70;;;;;;5032367;28;20159;-72
2023/05/20 01:33:19;;;;;;;6.77;6.20;;;14.70;99.50;;;;;;5035526;28;20773;-72
2023/05/20 01:35:46;;;;;;;6.30;5.70;;;14.70;99.90;;;;;;5052165;28;20401;-72
2023/05/20 01:38:12;;;;;;;6.90;6.30;;;14.70;99.90;;;;;;5051251;28;20402;-72
2023/05/20 01:40:38;;;;;;;6.03;5.53;;;14.70;99.90;;;;;;5051899;28;20809;-72
2023/05/20 01:43:05;;;;;;;7.03;6.43;;;14.70;99.90;;;;;;5055479;28;20436;-72
2023/05/20 01:45:31;;;;;;;6.80;6.23;;;14.70;99.90;;;;;;5055095;28;20457;-72
2023/05/20 01:47:57;;;;;;;6.50;5.90;;;14.70;99.90;;;;;;5038286;28;20817;-71
2023/05/20 01:50:23;;;;;;;6.87;6.27;;;14.70;99.90;;;;;;5055079;28;20445;-72
2023/05/20 01:52:49;;;;;;;6.27;5.80;;;14.70;99.90;;;;;;5055945;28;20230;-72
2023/05/20 01:55:14;;;;;;;6.43;5.83;;;14.70;99.90;;;;;;5055117;28;20176;-72
2023/05/20 01:57:40;;;;;;;7.47;6.87;;;14.70;99.90;;;;;;5054921;28;20190;-72
2023/05/20 02:00:06;;;;;;;6.80;6.30;;;14.70;99.90;;;;;;5037433;28;20306;-72
2023/05/20 02:02:32;;;;;;;6.50;6.00;;;14.60;99.70;;;;;;5055849;28;20180;-72
2023/05/20 02:04:58;;;;;;;6.03;5.33;;;14.50;99.90;;;;;;5050988;28;20979;-72
2023/05/20 02:07:23;;;;;;;7.07;6.57;;;14.50;99.90;;;;;;5054962;28;20235;-72
2023/05/20 02:09:49;;;;;;;6.57;6.07;;;14.50;99.90;;;;;;5037950;28;20227;-72
2023/05/20 02:12:15;;;;;;;6.27;5.83;;;14.50;99.90;;;;;;5054068;28;20186;-72
2023/05/20 02:14:46;;;;;;;6.50;6.00;;;14.50;99.90;;;;;;5055652;28;20400;-71
2023/05/20 02:17:15;;;;;;;6.80;6.20;;;14.50;99.90;;;;;;5053748;28;20431;-72
2023/05/20 02:19:42;;;;;;;6.47;5.97;;;14.50;99.90;;;;;;5055128;28;20469;-72
2023/05/20 02:22:08;;;;;;;6.10;5.63;;;14.50;99.90;;;;;;5054938;28;20416;-71
2023/05/20 02:24:34;;;;;;;7.03;6.43;;;14.40;99.90;;;;;;5054565;28;20785;-72
2023/05/20 02:27:00;;;;;;;6.30;5.80;;;14.40;99.90;;;;;;5055490;28;20224;-72
2023/05/20 02:29:26;;;;;;;6.10;5.70;;;14.40;99.90;;;;;;5054792;28;20396;-71
2023/05/20 02:31:51;;;;;;;6.40;5.90;;;14.30;99.90;;;;;;5054150;28;20422;-72
2023/05/20 02:34:18;;;;;;;6.20;5.73;;;14.30;99.90;;;;;;5053419;28;20643;-71
2023/05/20 02:36:43;;;;;;;7.10;6.57;;;14.30;99.90;;;;;;5054045;28;20189;-72
2023/05/20 02:39:09;;;;;;;6.20;5.80;;;14.20;99.90;;;;;;5036706;28;20890;-72
2023/05/20 02:41:35;;;;;;;6.47;5.97;;;14.20;99.90;;;;;;5054999;28;20201;-72
2023/05/20 02:44:01;;;;;;;6.80;6.30;;;14.10;99.90;;;;;;5035094;28;20186;-72
2023/05/20 02:46:26;;;;;;;7.90;6.87;;;14.20;99.90;;;;;;5034287;28;20485;-72
2023/05/20 02:48:52;;;;;;;7.30;6.70;;;14.20;99.90;;;;;;5017163;28;20174;-72
2023/05/20 02:51:18;;;;;;;7.43;6.70;;;14.10;99.90;;;;;;5036103;28;20174;-72
2023/05/20 02:53:43;;;;;;;6.93;6.40;;;14.10;99.90;;;;;;5054592;28;20166;-71
2023/05/20 02:56:09;;;;;;;7.90;7.20;;;14.20;99.90;;;;;;5054271;28;20257;-72
2023/05/20 02:58:36;;;;;;;7.30;6.50;;;14.10;99.90;;;;;;5054779;28;20182;-71
2023/05/20 03:01:02;;;;;;;7.67;6.97;;;14.00;99.90;;;;;;5053536;28;20471;-72
2023/05/20 03:03:28;;;;;;;7.30;6.70;;;14.00;99.90;;;;;;5052822;28;20980;-71
2023/05/20 03:05:54;;;;;;;8.20;7.50;;;14.00;99.90;;;;;;5052743;28;20428;-72
2023/05/20 03:08:21;;;;;;;7.03;6.50;;;13.90;99.90;;;;;;5035961;28;20423;-72
2023/05/20 03:10:47;;;;;;;7.40;6.80;;;13.90;99.90;;;;;;5054546;28;20224;-71
2023/05/20 03:13:14;;;;;;;7.80;7.10;;;14.00;99.90;;;;;;5035983;28;20440;-72
2023/05/20 03:15:41;;;;;;;7.50;6.90;;;14.00;99.90;;;;;;5054431;28;20415;-71
2023/05/20 03:18:07;;;;;;;6.60;6.10;;;14.00;99.90;;;;;;5053294;28;20424;-71
2023/05/20 03:20:37;;;;;;;6.57;5.93;;;14.00;99.90;;;;;;5053448;28;20967;-72
2023/05/20 03:23:03;;;;;;;8.50;7.70;;;13.90;99.90;;;;;;5053946;28;20447;-71
2023/05/20 03:25:29;;;;;;;7.27;6.60;;;13.90;99.90;;;;;;5041720;28;20425;-72
2023/05/20 03:27:59;;;;;;;7.83;6.80;;;14.00;99.90;;;;;;5034309;28;20405;-71
2023/05/20 03:30:26;;;;;;;7.40;6.80;;;14.00;99.90;;;;;;5033469;28;20459;-72
2023/05/20 03:32:58;;;;;;;7.07;6.57;;;14.00;99.90;;;;;;5041963;28;20478;-72
2023/05/20 03:35:27;;;;;;;6.70;5.90;;;13.90;99.90;;;;;;5052305;28;20514;-72
2023/05/20 03:37:52;;;;;;;5.93;5.53;;;13.90;99.90;;;;;;5053976;28;20405;-71
2023/05/20 03:40:19;;;;;;;6.90;6.20;;;14.00;99.90;;;;;;5053074;28;20464;-72
2023/05/20 03:42:45;;;;;;;5.90;5.50;;;14.00;99.90;;;;;;5054050;28;20216;-71
2023/05/20 03:45:11;;;;;;;6.60;6.20;;;14.00;99.90;;;;;;5053523;28;20418;-72
2023/05/20 03:47:37;;;;;;;6.53;6.03;;;14.00;99.90;;;;;;5053575;28;20223;-72
2023/05/20 03:50:03;;;;;;;6.60;6.20;;;14.00;99.90;;;;;;5052770;28;20403;-72
2023/05/20 03:52:29;;;;;;;6.70;6.20;;;13.80;99.90;;;;;;5052542;28;20466;-71
2023/05/20 03:54:55;;;;;;;6.30;5.90;;;13.60;99.90;;;;;;5052726;28;20439;-72
2023/05/20 03:57:21;;;;;;;6.67;6.20;;;13.60;99.90;;;;;;5048520;28;20462;-71
2023/05/20 03:59:47;;;;;;;7.13;6.40;;;13.60;99.90;;;;;;5053601;28;20498;-71
2023/05/20 04:02:13;;;;;;;7.43;6.90;;;13.60;99.90;;;;;;5052876;28;20408;-71
2023/05/20 04:04:41;;;;;;;7.10;6.40;;;13.70;99.90;;;;;;5046783;28;20212;-71
2023/05/20 04:07:10;;;;;;;6.47;6.07;;;13.70;99.90;;;;;;5053562;28;20176;-71
2023/05/20 04:09:37;;;;;;;6.80;6.30;;;13.80;99.90;;;;;;5053136;28;20413;-71
2023/05/20 04:12:03;;;;;;;7.20;6.50;;;13.80;99.90;;;;;;5052541;28;20436;-71
2023/05/20 04:14:30;;;;;;;7.07;6.67;;;13.70;99.90;;;;;;5052829;28;20898;-71
2023/05/20 04:16:56;;;;;;;7.53;6.83;;;13.80;99.90;;;;;;5053344;28;20499;-72
2023/05/20 04:19:22;;;;;;;8.73;8.03;;;13.80;99.90;;;;;;5052362;28;20493;-71
2023/05/20 04:21:48;;;;;;;8.53;7.90;;;13.70;99.90;;;;;;5052928;28;20619;-71
2023/05/20 04:24:14;;;;;;;7.57;7.07;;;13.60;99.90;;;;;;5052644;28;20438;-72
2023/05/20 04:26:40;;;;;;;7.20;6.70;;;13.50;99.90;;;;;;5052818;28;20415;-71
2023/05/20 04:29:06;;;;;;;7.73;7.13;;;13.50;99.90;;;;;;5051641;28;20177;-72
2023/05/20 04:31:31;;;;;;;12.10;7.27;;;13.50;99.90;;;;;;5051213;28;20438;-71
2023/05/20 04:33:57;;;;;;;7.53;7.03;;;13.30;99.90;;;;;;5052332;28;20189;-71
2023/05/20 04:36:29;;;;;;;6.67;6.17;;;13.10;99.90;;;;;;5051919;28;20330;-71
2023/05/20 04:38:56;;;;;;;7.27;6.67;;;13.10;99.90;;;;;;5038619;28;20186;-71
2023/05/20 04:41:22;;;;;;;7.43;6.73;;;13.00;99.90;;;;;;5044246;28;20528;-71
2023/05/20 04:43:49;;;;;;;6.60;6.20;;;13.00;99.90;;;;;;5035028;28;20407;-71
2023/05/20 04:46:15;;;;;;;7.17;6.67;;;13.10;99.90;;;;;;5050196;28;20480;-71
2023/05/20 04:48:42;;;;;;;6.40;5.80;;;13.00;99.90;;;;;;5052749;28;20415;-71
2023/05/20 04:51:09;;;;;;;7.17;6.57;;;13.10;99.90;;;;;;5034631;28;20770;-71
2023/05/20 04:53:35;;;;;;;6.23;5.83;;;13.10;99.90;;;;;;5051019;28;20504;-72
2023/05/20 04:56:02;;;;;;;6.40;5.90;;;13.20;99.90;;;;;;5052607;28;20410;-72
2023/05/20 04:58:29;;;;;;;6.40;6.00;;;13.30;99.90;;;;;;5051692;28;20454;-71
2023/05/20 05:00:55;;;;;;;6.40;5.90;;;13.40;99.90;;;;;;5030418;28;20860;-71
2023/05/20 05:03:21;;;;;;;6.50;6.00;;;13.50;99.90;;;;;;5034249;28;20567;-71
2023/05/20 05:05:46;;;;;;;7.00;6.50;;;13.50;99.90;;;;;;5032255;28;20494;-71
2023/05/20 05:08:12;;;;;;;6.70;6.20;;;13.60;99.90;;;;;;5032857;28;20174;-71
2023/05/20 05:10:38;;;;;;;6.07;5.57;;;13.60;99.90;;;;;;5031680;28;20678;-72
2023/05/20 05:13:04;;;;;;;6.20;5.80;;;13.70;99.90;;;;;;5032420;28;20198;-71
2023/05/20 05:15:30;;;;;;;7.03;6.53;;;13.70;99.90;;;;;;5031627;28;20412;-71
2023/05/20 05:17:56;;;;;;;6.23;5.77;;;13.80;99.90;;;;;;5032376;28;20170;-71
2023/05/20 05:20:22;;;;;;;7.20;6.70;;;13.80;99.90;;;;;;5031420;28;20309;-71
2023/05/20 05:22:49;;;;;;;7.57;7.00;;;13.70;99.90;;;;;;5049039;28;20522;-71
2023/05/20 05:25:15;;;;;;;7.13;6.63;;;13.60;99.90;;;;;;5051843;28;20500;-71
2023/05/20 05:27:43;;;;;;;6.50;6.00;;;13.60;99.90;;;;;;5051646;28;20411;-71
2023/05/20 05:30:10;;;;;;;7.77;7.07;;;13.70;99.90;;;;;;5050792;28;20484;-72
2023/05/20 05:32:36;;;;;;;9.10;8.27;;;13.60;99.90;;;;;;5050490;28;20807;-71
2023/05/20 05:35:02;;;;;;;16.50;12.37;;;13.70;99.90;;;;;;5033524;28;20776;-71
2023/05/20 05:37:28;;;;;;;8.70;7.90;;;13.80;99.90;;;;;;5051274;28;20415;-71
2023/05/20 05:39:54;;;;;;;7.53;6.83;;;13.70;99.90;;;;;;5051096;28;20212;-71
2023/05/20 05:42:20;;;;;;;6.57;6.07;;;13.70;99.90;;;;;;5028849;28;20248;-71
2023/05/20 05:44:46;;;;;;;6.23;5.83;;;13.90;99.90;;;;;;5030851;28;20421;-71
2023/05/20 05:47:12;;;;;;;6.30;5.80;;;14.00;99.90;;;;;;5041537;28;20462;-72
2023/05/20 05:49:37;;;;;;;5.53;5.13;;;14.10;99.90;;;;;;5051470;28;20582;-71
2023/05/20 05:52:04;;;;;;;6.40;5.80;;;14.00;99.90;;;;;;5047291;28;20282;-71
2023/05/20 05:54:29;;;;;;;6.63;6.13;;;14.00;99.90;;;;;;5071162;28;20178;-71
2023/05/20 05:56:55;;;;;;;6.53;5.93;;;14.10;99.90;;;;;;5071934;28;20479;-71
2023/05/20 05:59:21;;;;;;;6.57;6.00;;;14.20;99.90;;;;;;5069474;28;20197;-71
2023/05/20 06:01:47;;;;;;;6.00;5.53;;;14.30;99.90;;;;;;5059112;28;20214;-72
2023/05/20 06:04:12;;;;;;;6.73;6.23;;;14.30;99.90;;;;;;5052484;28;20186;-71
2023/05/20 06:06:39;;;;;;;6.23;5.73;;;14.40;99.90;;;;;;5051834;28;20182;-71
2023/05/20 06:09:05;;;;;;;7.53;6.23;;;14.40;99.90;;;;;;5051811;28;20413;-71
2023/05/20 06:11:31;;;;;;;6.13;5.60;;;14.50;99.90;;;;;;5049780;28;20500;-71
2023/05/20 06:13:57;;;;;;;6.40;5.90;;;14.60;99.90;;;;;;5051776;28;20186;-71
2023/05/20 06:16:23;;;;;;;6.53;6.03;;;14.70;99.90;;;;;;5061114;28;20183;-71
2023/05/20 06:18:55;;;;;;;6.53;5.83;;;14.60;99.90;;;;;;5068187;28;20780;-72
2023/05/20 06:21:22;;;;;;;6.73;5.90;;;14.60;99.90;;;;;;5070559;28;20226;-72
2023/05/20 06:23:47;;;;;;;6.83;6.23;;;14.70;99.90;;;;;;5071900;28;20429;-71
2023/05/20 06:26:13;;;;;;;6.73;6.13;;;14.70;99.90;;;;;;5071783;28;20879;-72
2023/05/20 06:28:39;;;;;;;6.80;6.30;;;14.70;99.90;;;;;;5072094;28;20205;-72
2023/05/20 06:31:05;;;;;;;6.00;5.50;;;14.80;99.90;;;;;;5069036;28;20186;-72
2023/05/20 06:33:31;;;;;;;7.67;6.80;;;14.80;99.90;;;;;;5060320;28;20517;-71
2023/05/20 06:35:57;;;;;;;7.53;6.93;;;14.80;99.90;;;;;;5067490;28;20851;-71
2023/05/20 06:38:23;;;;;;;7.77;7.13;;;14.90;99.90;;;;;;5071772;28;20192;-75
2023/05/20 06:40:49;;;;;;;7.87;7.27;;;15.10;99.90;;;;;;5060424;28;20546;-76
2023/05/20 06:43:16;;;;;;;7.50;6.93;;;15.40;99.90;;;;;;5065771;28;20188;-76
2023/05/20 06:45:42;;;;;;;7.57;7.07;;;15.70;99.90;;;;;;5062122;28;20829;-76
2023/05/20 06:48:08;;;;;;;6.87;6.27;;;15.90;99.90;;;;;;5072696;28;20422;-76
2023/05/20 06:50:34;;;;;;;5.70;5.30;;;16.00;99.90;;;;;;5074739;28;20464;-76
2023/05/20 06:53:00;;;;;;;7.83;7.10;;;16.20;99.90;;;;;;5058584;28;20300;-75
2023/05/20 06:55:26;;;;;;;7.70;7.10;;;16.40;99.90;;;;;;5054624;28;20915;-75
2023/05/20 06:57:52;;;;;;;6.53;6.10;;;16.60;99.90;;;;;;5054299;28;20428;-76
2023/05/20 07:00:18;;;;;;;6.87;6.27;;;16.80;99.90;;;;;;5049473;28;20550;-76
2023/05/20 07:02:44;;;;;;;6.57;5.97;;;16.90;99.90;;;;;;5053518;28;20427;-76
2023/05/20 07:05:10;;;;;;;11.50;10.37;;;17.00;99.90;;;;;;5052918;28;20432;-76
2023/05/20 07:07:36;;;;;;;6.90;6.30;;;17.00;99.30;;;;;;5035210;28;20424;-75
2023/05/20 07:10:04;;;;;;;6.70;6.10;;;17.10;99.90;;;;;;5054852;28;20409;-75
2023/05/20 07:12:30;;;;;;;6.17;5.70;;;17.20;99.90;;;;;;5054127;28;20181;-76
2023/05/20 07:14:56;;;;;;;8.00;7.30;;;17.20;99.90;;;;;;5053879;28;20405;-75
2023/05/20 07:17:23;;;;;;;6.93;6.40;;;17.20;99.90;;;;;;5054111;28;20411;-75
2023/05/20 07:19:49;;;;;;;6.73;6.13;;;17.20;98.80;;;;;;5054694;28;20174;-75
2023/05/20 07:22:15;;;;;;;8.53;6.50;;;17.20;99.60;;;;;;5054277;28;20413;-75
2023/05/20 07:24:40;;;;;;;7.00;6.40;;;17.10;99.70;;;;;;5051409;28;20409;-75
2023/05/20 07:27:06;;;;;;;9.30;6.70;;;17.10;99.90;;;;;;5036420;28;20176;-75
2023/05/20 07:29:32;;;;;;;6.77;6.17;;;17.20;99.90;;;;;;5052094;28;20181;-76
2023/05/20 07:31:57;;;;;;;8.20;7.50;;;17.10;99.90;;;;;;5040668;28;20188;-74
2023/05/20 07:34:23;;;;;;;6.87;6.27;;;16.90;98.60;;;;;;5052514;28;20177;-74
2023/05/20 07:36:50;;;;;;;7.80;7.20;;;17.00;98.90;;;;;;5048691;28;20168;-73
2023/05/20 07:39:16;;;;;;;8.00;7.30;;;16.90;98.80;;;;;;5033570;28;20249;-73
2023/05/20 07:41:41;;;;;;;10.20;7.90;;;16.70;98.80;;;;;;5033884;28;20540;-73
2023/05/20 07:44:07;;;;;;;8.47;7.77;;;16.70;99.40;;;;;;5034606;28;20216;-74
2023/05/20 07:46:37;;;;;;;7.30;6.80;;;16.60;99.90;;;;;;5033799;28;20177;-73
2023/05/20 07:49:03;;;;;;;7.33;6.70;;;16.50;99.90;;;;;;5034775;28;20201;-74
2023/05/20 07:51:30;;;;;;;8.33;7.50;;;16.50;99.90;;;;;;5029462;28;20455;-73
2023/05/20 07:53:55;;;;;;;7.47;6.87;;;16.30;99.90;;;;;;5074303;28;20403;-73
2023/05/20 07:56:21;;;;;;;7.70;7.10;;;16.30;99.90;;;;;;5072985;28;20411;-74
2023/05/20 07:58:58;;;;;;;8.10;7.50;;;16.30;99.90;;;;;;5072874;28;20508;-73
2023/05/20 08:01:24;;;;;;;8.90;8.10;;;16.10;99.90;;;;;;5073910;28;20530;-73
2023/05/20 08:03:50;;;;;;;7.90;7.20;;;16.10;99.90;;;;;;5080617;28;20409;-74
2023/05/20 08:06:16;;;;;;;9.13;6.80;;;16.10;99.90;;;;;;5085423;28;20395;-74
2023/05/20 08:08:43;;;;;;;7.60;7.00;;;16.00;99.90;;;;;;5073336;28;20204;-73
2023/05/20 08:11:09;;;;;;;9.80;9.00;;;16.00;99.90;;;;;;5073848;28;20940;-74
2023/05/20 08:13:35;;;;;;;8.50;7.70;;;16.10;99.90;;;;;;5073235;28;20177;-73
2023/05/20 08:16:07;;;;;;;8.10;7.40;;;16.10;99.90;;;;;;5073976;28;20177;-74
2023/05/20 08:18:36;;;;;;;8.43;7.60;;;16.10;99.90;;;;;;5073295;28;20261;-73
2023/05/20 08:21:02;;;;;;;7.97;7.27;;;16.10;99.90;;;;;;5073420;28;20535;-75
2023/05/20 08:23:28;;;;;;;7.87;7.23;;;16.10;99.90;;;;;;5072302;28;20419;-74
2023/05/20 08:25:54;;;;;;;9.00;8.30;;;16.10;99.90;;;;;;5073643;28;20414;-75
2023/05/20 08:28:20;;;;;;;9.70;8.80;;;16.00;99.90;;;;;;5072215;28;20427;-75
2023/05/20 08:30:47;;;;;;;10.50;9.50;;;16.00;99.90;;;;;;5072853;28;20203;-75
2023/05/20 08:33:14;;;;;;;9.03;8.33;;;16.00;99.90;;;;;;5073567;28;20474;-78
2023/05/20 08:35:39;;;;;;;8.03;7.40;;;16.00;99.90;;;;;;5072852;28;20448;-74
2023/05/20 08:38:06;;;;;;;8.73;8.03;;;16.00;99.90;;;;;;5073586;28;20408;-74
2023/05/20 08:40:34;;;;;;;8.63;7.93;;;15.90;99.90;;;;;;5071882;28;20778;-74
2023/05/20 08:43:00;;;;;;;8.70;8.00;;;16.00;99.90;;;;;;5073252;28;20410;-74
2023/05/20 08:45:29;;;;;;;9.00;8.17;;;15.90;99.90;;;;;;5073029;28;20917;-74
2023/05/20 08:47:56;;;;;;;9.40;8.60;;;15.90;99.90;;;;;;5073244;28;20402;-76
2023/05/20 08:50:22;;;;;;;9.13;8.30;;;15.90;99.90;;;;;;5072881;28;20536;-76
2023/05/20 08:52:48;;;;;;;8.83;8.13;;;15.90;99.90;;;;;;5058028;28;20463;-73
2023/05/20 08:55:21;;;;;;;7.90;7.23;;;16.00;99.90;;;;;;5018473;28;20736;-74
2023/05/20 08:57:50;;;;;;;8.50;7.73;;;16.00;99.90;;;;;;5050575;28;20654;-74
2023/05/20 09:00:17;;;;;;;8.70;7.90;;;16.10;99.90;;;;;;5053017;28;20439;-74
2023/05/20 09:02:45;;;;;;;8.10;7.50;;;16.00;99.90;;;;;;5052347;28;20469;-74
2023/05/20 09:05:11;;;;;;;8.30;7.60;;;16.10;99.90;;;;;;5052961;28;20410;-74
2023/05/20 09:07:36;;;;;;;8.93;8.10;;;16.20;99.90;;;;;;5052301;28;20491;-74
2023/05/20 09:10:03;;;;;;;9.10;8.37;;;16.20;99.90;;;;;;5050054;28;21006;-75
2023/05/20 09:12:29;;;;;;;8.43;7.60;;;16.30;99.90;;;;;;5049573;28;20515;-73
2023/05/20 09:14:55;;;;;;;9.30;8.47;;;16.30;99.90;;;;;;5042562;28;20575;-74
2023/05/20 09:17:22;;;;;;;10.33;8.83;;;16.30;99.90;;;;;;5052117;28;20408;-74
2023/05/20 09:19:53;;;;;;;8.13;7.43;;;16.40;99.90;;;;;;5051733;28;20742;-74
2023/05/20 09:22:26;;;;;;;9.50;8.60;;;16.50;99.90;;;;;;5052720;28;20436;-75
2023/05/20 09:24:53;;;;;;;9.17;8.03;;;16.50;99.90;;;;;;5052064;28;20400;-73
2023/05/20 09:27:20;;;;;;;9.23;8.33;;;16.50;99.90;;;;;;5052596;28;20404;-74
2023/05/20 09:29:49;;;;;;;10.23;9.43;;;16.50;99.90;;;;;;5050155;28;20416;-74
2023/05/20 09:32:15;;;;;;;10.33;9.33;;;16.20;99.90;;;;;;5051652;28;20852;-74
2023/05/20 09:34:41;;;;;;;9.43;8.43;;;16.30;99.90;;;;;;5051881;28;20425;-72
2023/05/20 09:37:08;;;;;;;10.33;9.43;;;16.30;99.90;;;;;;5052442;28;20444;-74
2023/05/20 09:40:05;;;;;;;10.10;9.30;;;16.30;99.90;;;;;;5033188;28;20414;-74
2023/05/20 09:42:41;;;;;;;10.23;9.23;;;16.30;99.90;;;;;;5030876;28;20455;-73
2023/05/20 09:45:10;;;;;;;10.27;9.37;;;16.30;99.90;;;;;;5049947;28;20498;-75
2023/05/20 09:47:38;;;;;;;87.27;59.70;;;16.30;99.90;;;;;;5031427;28;20954;-74
2023/05/20 09:50:08;;;;;;;59.17;45.60;;;16.40;99.90;;;;;;5051158;28;20811;-75
2023/05/20 09:52:37;;;;;;;47.40;34.30;;;16.40;99.90;;;;;;5031198;28;20521;-74
2023/05/20 09:55:05;;;;;;;36.87;30.33;;;16.40;99.90;;;;;;5031991;28;20496;-76
2023/05/20 09:57:34;;;;;;;33.97;26.67;;;16.50;99.90;;;;;;5031877;28;20474;-73
2023/05/20 10:00:00;;;;;;;11.60;9.97;;;16.50;99.90;;;;;;5038864;28;20463;-76
2023/05/20 10:02:27;;;;;;;11.40;10.30;;;16.60;99.90;;;;;;5052783;28;20435;-74
2023/05/20 10:04:54;;;;;;;13.33;9.10;;;16.70;99.90;;;;;;5053958;28;20427;-75
2023/05/20 10:07:27;;;;;;;10.90;9.80;;;16.80;99.90;;;;;;5055204;28;20470;-75
2023/05/20 10:10:07;;;;;;;9.50;8.60;;;16.80;99.90;;;;;;5053715;28;21049;-74
2023/05/20 10:12:48;;;;;;;10.03;9.23;;;16.80;99.90;;;;;;5054827;28;20446;-74
2023/05/20 10:15:57;;;;;;;9.73;8.83;;;16.90;99.90;;;;;;5053370;28;20443;-79
2023/05/20 10:18:37;;;;;;;12.20;10.00;;;17.00;99.90;;;;;;5053724;28;20439;-75
2023/05/20 10:21:02;;;;;;;10.20;9.20;;;16.90;99.90;;;;;;5055600;28;20875;-76
2023/05/20 10:23:29;;;;;;;10.67;9.60;;;16.90;99.90;;;;;;5053927;28;20434;-75
2023/05/20 10:25:56;;;;;;;9.90;9.00;;;16.90;99.90;;;;;;5054540;28;20470;-77
2023/05/20 10:28:37;;;;;;;10.40;9.37;;;16.90;99.90;;;;;;5053754;28;20507;-76
2023/05/20 10:31:16;;;;;;;9.80;8.90;;;17.00;99.90;;;;;;5041854;28;20416;-76
2023/05/20 10:33:43;;;;;;;9.03;8.23;;;17.20;99.90;;;;;;5016983;28;20865;-76
2023/05/20 10:36:08;;;;;;;10.40;9.30;;;17.30;99.90;;;;;;5038826;28;20459;-76
2023/05/20 10:38:34;;;;;;;9.87;8.90;;;17.30;99.90;;;;;;5054998;28;20439;-77
2023/05/20 10:41:12;;;;;;;9.87;8.87;;;17.30;99.90;;;;;;5052347;28;20213;-75
2023/05/20 10:43:38;;;;;;;9.70;8.63;;;17.40;99.90;;;;;;5040609;28;20182;-78
2023/05/20 10:46:06;;;;;;;10.10;9.27;;;17.40;99.90;;;;;;5035466;28;20409;-78
2023/05/20 10:48:32;;;;;;;9.97;9.10;;;17.40;99.90;;;;;;5037732;28;20189;-75
2023/05/20 10:51:04;;;;;;;9.93;9.07;;;17.50;99.90;;;;;;5054525;28;20439;-75
2023/05/20 10:53:39;;;;;;;106.10;76.03;;;17.60;99.90;;;;;;5056160;28;20420;-76
2023/05/20 10:56:05;;;;;;;15.60;14.00;;;17.60;99.90;;;;;;5049867;28;20420;-75
2023/05/20 10:58:38;;;;;;;10.67;9.57;;;17.80;99.90;;;;;;5035066;28;20885;-76
2023/05/20 11:01:04;;;;;;;11.97;10.77;;;17.90;99.90;;;;;;5045977;28;20828;-73
2023/05/20 11:03:32;;;;;;;10.10;9.17;;;18.10;99.90;;;;;;5055301;28;20443;-75
2023/05/20 11:05:57;;;;;;;9.67;8.90;;;18.30;99.90;;;;;;5054410;28;20874;-76
2023/05/20 11:08:28;;;;;;;9.13;8.33;;;18.60;99.90;;;;;;5055047;28;20413;-75
2023/05/20 11:10:56;;;;;;;9.80;8.93;;;18.70;99.90;;;;;;5054170;28;20634;-74
2023/05/20 11:13:22;;;;;;;9.10;8.40;;;18.80;99.80;;;;;;5053939;28;20408;-74
2023/05/20 11:15:48;;;;;;;9.70;8.90;;;18.80;99.10;;;;;;5054290;28;20404;-75
2023/05/20 11:18:14;;;;;;;9.73;8.87;;;18.80;99.40;;;;;;5037030;28;20184;-76
2023/05/20 11:20:40;;;;;;;11.37;8.87;;;18.80;99.60;;;;;;5054153;28;20470;-83
2023/05/20 11:23:13;;;;;;;9.63;8.83;;;18.80;99.00;;;;;;5037117;28;20559;-76
2023/05/20 11:25:40;;;;;;;9.93;8.80;;;18.90;99.70;;;;;;5054426;28;20162;-76
2023/05/20 11:28:12;;;;;;;8.70;7.90;;;18.90;98.90;;;;;;5053369;28;20507;-74
2023/05/20 11:30:42;;;;;;;41.87;32.00;;;18.90;99.90;;;;;;5049619;28;20935;-75
2023/05/20 11:33:11;;;;;;;128.83;94.53;;;19.00;99.90;;;;;;5035883;28;20943;-76
2023/05/20 11:35:44;;;;;;;10.40;9.50;;;19.00;99.90;;;;;;5052521;28;20409;-73
2023/05/20 11:38:10;;;;;;;9.87;9.00;;;19.10;99.90;;;;;;5045864;28;20417;-77
2023/05/20 11:40:36;;;;;;;8.90;8.10;;;19.20;99.90;;;;;;5051238;28;20895;-75
2023/05/20 11:43:03;;;;;;;9.50;8.60;;;19.20;99.90;;;;;;5054399;28;20415;-75
2023/05/20 11:45:45;;;;;;;8.90;8.20;;;19.10;99.30;;;;;;5052488;28;20432;-75
2023/05/20 11:48:11;;;;;;;9.73;8.93;;;19.10;99.40;;;;;;5051879;28;20428;-75
2023/05/20 11:50:39;;;;;;;14.07;12.80;;;19.10;99.70;;;;;;5052785;28;20828;-74
2023/05/20 11:53:10;;;;;;;9.63;8.83;;;19.10;99.00;;;;;;5053777;28;20817;-76
2023/05/20 11:55:54;;;;;;;13.20;11.63;;;19.10;99.80;;;;;;5054257;28;20420;-76
2023/05/20 11:58:33;;;;;;;10.83;9.70;;;19.20;99.90;;;;;;5049122;28;20425;-75
2023/05/20 12:00:59;;;;;;;9.97;9.17;;;19.20;99.90;;;;;;5039337;28;20539;-73
2023/05/20 12:03:24;;;;;;;9.50;8.70;;;19.30;99.90;;;;;;5050106;28;20436;-70
2023/05/20 12:05:51;;;;;;;12.07;8.27;;;19.30;99.90;;;;;;5053368;28;20546;-71
2023/05/20 12:08:17;;;;;;;8.40;7.70;;;19.30;99.20;;;;;;5013972;28;20524;-72
2023/05/20 12:10:43;;;;;;;8.97;8.23;;;19.10;98.20;;;;;;5036861;28;20434;-74
2023/05/20 12:13:12;;;;;;;8.20;7.00;;;19.10;99.20;;;;;;5051658;28;20428;-73
2023/05/20 12:15:38;;;;;;;8.67;7.97;;;19.10;99.90;;;;;;5050139;28;20497;-73
2023/05/20 12:18:05;;;;;;;9.17;8.37;;;19.10;98.80;;;;;;5051643;28;20462;-77
2023/05/20 12:20:32;;;;;;;9.97;9.03;;;19.10;99.30;;;;;;5035700;28;20838;-73
2023/05/20 12:22:59;;;;;;;8.20;7.50;;;19.10;99.20;;;;;;5050870;28;20423;-73
2023/05/20 12:25:25;;;;;;;7.77;7.17;;;19.10;98.80;;;;;;5051812;28;20178;-74
2023/05/20 12:27:51;;;;;;;8.30;7.60;;;19.20;99.50;;;;;;5048295;28;20933;-73
2023/05/20 12:30:18;;;;;;;8.00;7.40;;;19.10;98.40;;;;;;5050800;28;20544;-73
2023/05/20 12:32:45;;;;;;;7.80;7.00;;;19.10;98.60;;;;;;5052537;28;20396;-73
2023/05/20 12:35:11;;;;;;;9.10;8.00;;;19.10;98.90;;;;;;5053285;28;20412;-73
2023/05/20 12:37:41;;;;;;;7.70;7.10;;;18.90;98.40;;;;;;5053281;28;20405;-72
2023/05/20 12:40:08;;;;;;;8.73;7.93;;;18.90;98.60;;;;;;5053116;28;20448;-72
2023/05/20 12:42:35;;;;;;;14.13;12.63;;;18.80;98.40;;;;;;5052511;28;20440;-72
2023/05/20 12:45:01;;;;;;;6.97;6.47;;;18.80;99.70;;;;;;5052562;28;20430;-71